sensor_id;sensor_type;location;lat;lon;timestamp;P1;durP1;ratioP1;P2;durP2;ratioP2
84923;SDS011;75286;52.218;5.180;2024-01-11T00:00:05;18.98;;;11.18;;
84923;SDS011;75286;52.218;5.180;2024-01-11T00:02:31;18.55;;;10.90;;
84923;SDS011;75286;52.218;5.180;2024-01-11T00:04:57;16.13;;;10.32;;
84923;SDS011;75286;52.218;5.180;2024-01-11T00:07:22;19.48;;;10.95;;
84923;SDS011;75286;52.218;5.180;2024-01-11T00:09:48;16.08;;;9.63;;
84923;SDS011;75286;52.218;5.180;2024-01-11T00:12:13;17.77;;;11.40;;
84923;SDS011;75286;52.218;5.180;2024-01-11T00:14:38;19.90;;;11.82;;
84923;SDS011;75286;52.218;5.180;2024-01-11T00:17:04;18.60;;;11.05;;
84923;SDS011;75286;52.218;5.180;2024-01-11T00:19:29;18.98;;;10.25;;
84923;SDS011;75286;52.218;5.180;2024-01-11T00:21:54;19.00;;;11.57;;
84923;SDS011;75286;52.218;5.180;2024-01-11T00:24:20;17.85;;;10.80;;
84923;SDS011;75286;52.218;5.180;2024-01-11T00:26:45;20.33;;;11.32;;
84923;SDS011;75286;52.218;5.180;2024-01-11T00:29:10;17.38;;;10.75;;
84923;SDS011;75286;52.218;5.180;2024-01-11T00:31:36;21.25;;;11.43;;
84923;SDS011;75286;52.218;5.180;2024-01-11T00:34:02;19.38;;;10.80;;
84923;SDS011;75286;52.218;5.180;2024-01-11T00:36:27;17.42;;;10.60;;
84923;SDS011;75286;52.218;5.180;2024-01-11T00:38:53;19.73;;;11.55;;
84923;SDS011;75286;52.218;5.180;2024-01-11T00:41:19;19.98;;;11.88;;
84923;SDS011;75286;52.218;5.180;2024-01-11T00:43:44;21.25;;;11.60;;
84923;SDS011;75286;52.218;5.180;2024-01-11T00:46:10;20.05;;;10.95;;
84923;SDS011;75286;52.218;5.180;2024-01-11T00:48:35;18.25;;;10.90;;
84923;SDS011;75286;52.218;5.180;2024-01-11T00:51:00;21.83;;;11.43;;
84923;SDS011;75286;52.218;5.180;2024-01-11T00:53:26;22.33;;;12.60;;
84923;SDS011;75286;52.218;5.180;2024-01-11T00:55:55;19.58;;;10.70;;
84923;SDS011;75286;52.218;5.180;2024-01-11T00:58:24;18.67;;;10.57;;
84923;SDS011;75286;52.218;5.180;2024-01-11T01:00:49;22.08;;;11.80;;
84923;SDS011;75286;52.218;5.180;2024-01-11T01:03:15;20.05;;;11.95;;
84923;SDS011;75286;52.218;5.180;2024-01-11T01:05:41;21.45;;;11.20;;
84923;SDS011;75286;52.218;5.180;2024-01-11T01:08:06;20.60;;;12.35;;
84923;SDS011;75286;52.218;5.180;2024-01-11T01:10:32;18.83;;;12.07;;
84923;SDS011;75286;52.218;5.180;2024-01-11T01:12:57;23.38;;;12.52;;
84923;SDS011;75286;52.218;5.180;2024-01-11T01:15:23;19.20;;;11.85;;
84923;SDS011;75286;52.218;5.180;2024-01-11T01:17:48;21.20;;;12.32;;
84923;SDS011;75286;52.218;5.180;2024-01-11T01:20:13;21.42;;;11.82;;
84923;SDS011;75286;52.218;5.180;2024-01-11T01:22:39;21.17;;;12.82;;
84923;SDS011;75286;52.218;5.180;2024-01-11T01:25:05;20.08;;;12.27;;
84923;SDS011;75286;52.218;5.180;2024-01-11T01:27:31;25.38;;;13.43;;
84923;SDS011;75286;52.218;5.180;2024-01-11T01:29:56;23.25;;;13.73;;
84923;SDS011;75286;52.218;5.180;2024-01-11T01:32:21;20.23;;;12.68;;
84923;SDS011;75286;52.218;5.180;2024-01-11T01:34:47;21.92;;;13.57;;
84923;SDS011;75286;52.218;5.180;2024-01-11T01:37:12;21.02;;;12.90;;
84923;SDS011;75286;52.218;5.180;2024-01-11T01:39:37;21.80;;;13.02;;
84923;SDS011;75286;52.218;5.180;2024-01-11T01:42:04;23.35;;;12.82;;
84923;SDS011;75286;52.218;5.180;2024-01-11T01:44:31;23.52;;;13.13;;
84923;SDS011;75286;52.218;5.180;2024-01-11T01:46:56;21.92;;;12.80;;
84923;SDS011;75286;52.218;5.180;2024-01-11T01:49:21;23.42;;;12.95;;
84923;SDS011;75286;52.218;5.180;2024-01-11T01:51:48;23.25;;;13.00;;
84923;SDS011;75286;52.218;5.180;2024-01-11T01:54:14;22.77;;;12.93;;
84923;SDS011;75286;52.218;5.180;2024-01-11T01:56:41;24.58;;;13.57;;
84923;SDS011;75286;52.218;5.180;2024-01-11T01:59:06;21.35;;;13.63;;
84923;SDS011;75286;52.218;5.180;2024-01-11T02:01:33;23.35;;;13.90;;
84923;SDS011;75286;52.218;5.180;2024-01-11T02:03:59;23.25;;;14.55;;
84923;SDS011;75286;52.218;5.180;2024-01-11T02:06:25;23.55;;;14.27;;
84923;SDS011;75286;52.218;5.180;2024-01-11T02:08:52;23.65;;;12.98;;
84923;SDS011;75286;52.218;5.180;2024-01-11T02:11:20;23.17;;;15.18;;
84923;SDS011;75286;52.218;5.180;2024-01-11T02:13:46;24.17;;;14.43;;
84923;SDS011;75286;52.218;5.180;2024-01-11T02:16:13;24.30;;;14.73;;
84923;SDS011;75286;52.218;5.180;2024-01-11T02:18:38;25.63;;;14.68;;
84923;SDS011;75286;52.218;5.180;2024-01-11T02:21:05;24.50;;;14.10;;
84923;SDS011;75286;52.218;5.180;2024-01-11T02:23:34;25.95;;;14.75;;
84923;SDS011;75286;52.218;5.180;2024-01-11T02:26:04;28.60;;;15.63;;
84923;SDS011;75286;52.218;5.180;2024-01-11T02:28:30;27.17;;;16.25;;
84923;SDS011;75286;52.218;5.180;2024-01-11T02:30:55;27.73;;;15.45;;
84923;SDS011;75286;52.218;5.180;2024-01-11T02:33:21;24.73;;;15.52;;
84923;SDS011;75286;52.218;5.180;2024-01-11T02:35:47;26.70;;;16.63;;
84923;SDS011;75286;52.218;5.180;2024-01-11T02:38:13;24.42;;;15.32;;
84923;SDS011;75286;52.218;5.180;2024-01-11T02:40:38;28.10;;;15.82;;
84923;SDS011;75286;52.218;5.180;2024-01-11T02:43:10;25.17;;;15.43;;
84923;SDS011;75286;52.218;5.180;2024-01-11T02:45:36;29.83;;;16.70;;
84923;SDS011;75286;52.218;5.180;2024-01-11T02:48:02;23.52;;;15.43;;
84923;SDS011;75286;52.218;5.180;2024-01-11T02:50:28;26.65;;;16.95;;
84923;SDS011;75286;52.218;5.180;2024-01-11T02:52:53;28.23;;;16.02;;
84923;SDS011;75286;52.218;5.180;2024-01-11T02:55:19;26.65;;;16.45;;
84923;SDS011;75286;52.218;5.180;2024-01-11T02:57:45;26.02;;;16.35;;
84923;SDS011;75286;52.218;5.180;2024-01-11T03:00:10;30.10;;;18.25;;
84923;SDS011;75286;52.218;5.180;2024-01-11T03:02:37;26.50;;;16.23;;
84923;SDS011;75286;52.218;5.180;2024-01-11T03:05:03;29.48;;;17.05;;
84923;SDS011;75286;52.218;5.180;2024-01-11T03:07:29;26.98;;;17.75;;
84923;SDS011;75286;52.218;5.180;2024-01-11T03:09:55;33.00;;;18.38;;
84923;SDS011;75286;52.218;5.180;2024-01-11T03:12:21;30.67;;;18.55;;
84923;SDS011;75286;52.218;5.180;2024-01-11T03:14:47;30.65;;;18.60;;
84923;SDS011;75286;52.218;5.180;2024-01-11T03:17:13;31.27;;;18.80;;
84923;SDS011;75286;52.218;5.180;2024-01-11T03:19:41;27.90;;;17.17;;
84923;SDS011;75286;52.218;5.180;2024-01-11T03:22:06;29.10;;;17.27;;
84923;SDS011;75286;52.218;5.180;2024-01-11T03:24:32;25.23;;;16.70;;
84923;SDS011;75286;52.218;5.180;2024-01-11T03:26:58;30.10;;;18.50;;
84923;SDS011;75286;52.218;5.180;2024-01-11T03:29:23;28.85;;;17.48;;
84923;SDS011;75286;52.218;5.180;2024-01-11T03:31:49;29.95;;;18.15;;
84923;SDS011;75286;52.218;5.180;2024-01-11T03:34:14;32.85;;;19.20;;
84923;SDS011;75286;52.218;5.180;2024-01-11T03:36:40;30.98;;;18.38;;
84923;SDS011;75286;52.218;5.180;2024-01-11T03:39:05;32.35;;;19.02;;
84923;SDS011;75286;52.218;5.180;2024-01-11T03:41:31;31.77;;;18.58;;
84923;SDS011;75286;52.218;5.180;2024-01-11T03:43:56;31.23;;;20.10;;
84923;SDS011;75286;52.218;5.180;2024-01-11T03:46:22;33.05;;;19.33;;
84923;SDS011;75286;52.218;5.180;2024-01-11T03:48:47;32.38;;;19.67;;
84923;SDS011;75286;52.218;5.180;2024-01-11T03:51:13;33.17;;;18.98;;
84923;SDS011;75286;52.218;5.180;2024-01-11T03:53:41;31.23;;;19.70;;
84923;SDS011;75286;52.218;5.180;2024-01-11T03:56:06;34.05;;;20.27;;
84923;SDS011;75286;52.218;5.180;2024-01-11T03:58:32;32.35;;;20.50;;
84923;SDS011;75286;52.218;5.180;2024-01-11T04:00:57;32.83;;;19.95;;
84923;SDS011;75286;52.218;5.180;2024-01-11T04:03:23;32.85;;;19.70;;
84923;SDS011;75286;52.218;5.180;2024-01-11T04:05:48;34.55;;;22.50;;
84923;SDS011;75286;52.218;5.180;2024-01-11T04:08:14;34.72;;;21.30;;
84923;SDS011;75286;52.218;5.180;2024-01-11T04:10:39;31.70;;;20.92;;
84923;SDS011;75286;52.218;5.180;2024-01-11T04:13:06;34.90;;;21.45;;
84923;SDS011;75286;52.218;5.180;2024-01-11T04:15:32;39.50;;;22.23;;
84923;SDS011;75286;52.218;5.180;2024-01-11T04:17:57;36.83;;;21.73;;
84923;SDS011;75286;52.218;5.180;2024-01-11T04:20:23;33.50;;;22.20;;
84923;SDS011;75286;52.218;5.180;2024-01-11T04:22:49;37.85;;;22.42;;
84923;SDS011;75286;52.218;5.180;2024-01-11T04:25:14;38.05;;;23.15;;
84923;SDS011;75286;52.218;5.180;2024-01-11T04:27:40;38.38;;;23.50;;
84923;SDS011;75286;52.218;5.180;2024-01-11T04:30:05;38.08;;;23.10;;
84923;SDS011;75286;52.218;5.180;2024-01-11T04:32:31;39.28;;;23.10;;
84923;SDS011;75286;52.218;5.180;2024-01-11T04:34:57;36.55;;;22.58;;
84923;SDS011;75286;52.218;5.180;2024-01-11T04:37:22;41.13;;;22.90;;
84923;SDS011;75286;52.218;5.180;2024-01-11T04:39:47;35.05;;;22.70;;
84923;SDS011;75286;52.218;5.180;2024-01-11T04:42:13;39.70;;;24.17;;
84923;SDS011;75286;52.218;5.180;2024-01-11T04:44:38;41.00;;;24.13;;
84923;SDS011;75286;52.218;5.180;2024-01-11T04:47:03;35.88;;;23.98;;
84923;SDS011;75286;52.218;5.180;2024-01-11T04:49:29;35.80;;;22.35;;
84923;SDS011;75286;52.218;5.180;2024-01-11T04:51:54;39.53;;;23.75;;
84923;SDS011;75286;52.218;5.180;2024-01-11T04:54:19;36.83;;;23.10;;
84923;SDS011;75286;52.218;5.180;2024-01-11T04:56:45;42.72;;;23.33;;
84923;SDS011;75286;52.218;5.180;2024-01-11T04:59:10;38.33;;;23.35;;
84923;SDS011;75286;52.218;5.180;2024-01-11T05:01:35;40.28;;;23.90;;
84923;SDS011;75286;52.218;5.180;2024-01-11T05:04:01;38.85;;;24.08;;
84923;SDS011;75286;52.218;5.180;2024-01-11T05:06:26;39.33;;;23.73;;
84923;SDS011;75286;52.218;5.180;2024-01-11T05:08:51;40.97;;;24.25;;
84923;SDS011;75286;52.218;5.180;2024-01-11T05:11:18;38.45;;;24.65;;
84923;SDS011;75286;52.218;5.180;2024-01-11T05:13:48;36.42;;;22.33;;
84923;SDS011;75286;52.218;5.180;2024-01-11T05:16:18;34.92;;;23.13;;
84923;SDS011;75286;52.218;5.180;2024-01-11T05:18:47;38.15;;;23.98;;
84923;SDS011;75286;52.218;5.180;2024-01-11T05:21:13;43.35;;;25.88;;
84923;SDS011;75286;52.218;5.180;2024-01-11T05:23:40;40.08;;;25.92;;
84923;SDS011;75286;52.218;5.180;2024-01-11T05:26:07;38.78;;;24.70;;
84923;SDS011;75286;52.218;5.180;2024-01-11T05:28:33;40.05;;;24.67;;
84923;SDS011;75286;52.218;5.180;2024-01-11T05:30:58;45.35;;;26.33;;
84923;SDS011;75286;52.218;5.180;2024-01-11T05:33:24;38.63;;;24.67;;
84923;SDS011;75286;52.218;5.180;2024-01-11T05:35:49;40.83;;;25.30;;
84923;SDS011;75286;52.218;5.180;2024-01-11T05:38:14;40.03;;;25.70;;
84923;SDS011;75286;52.218;5.180;2024-01-11T05:40:40;42.10;;;24.38;;
84923;SDS011;75286;52.218;5.180;2024-01-11T05:43:05;45.00;;;24.70;;
84923;SDS011;75286;52.218;5.180;2024-01-11T05:45:31;40.53;;;25.30;;
84923;SDS011;75286;52.218;5.180;2024-01-11T05:47:56;43.72;;;27.50;;
84923;SDS011;75286;52.218;5.180;2024-01-11T05:50:21;42.33;;;25.98;;
84923;SDS011;75286;52.218;5.180;2024-01-11T05:52:47;42.30;;;26.20;;
84923;SDS011;75286;52.218;5.180;2024-01-11T05:55:12;42.03;;;25.73;;
84923;SDS011;75286;52.218;5.180;2024-01-11T05:57:37;43.85;;;25.70;;
84923;SDS011;75286;52.218;5.180;2024-01-11T06:00:04;41.53;;;26.88;;
84923;SDS011;75286;52.218;5.180;2024-01-11T06:02:31;41.30;;;25.42;;
84923;SDS011;75286;52.218;5.180;2024-01-11T06:04:57;41.03;;;25.73;;
84923;SDS011;75286;52.218;5.180;2024-01-11T06:07:22;41.97;;;25.13;;
84923;SDS011;75286;52.218;5.180;2024-01-11T06:09:47;40.42;;;25.17;;
84923;SDS011;75286;52.218;5.180;2024-01-11T06:12:13;41.83;;;26.10;;
84923;SDS011;75286;52.218;5.180;2024-01-11T06:14:39;40.65;;;24.50;;
84923;SDS011;75286;52.218;5.180;2024-01-11T06:17:04;41.55;;;23.88;;
84923;SDS011;75286;52.218;5.180;2024-01-11T06:19:29;42.78;;;26.15;;
84923;SDS011;75286;52.218;5.180;2024-01-11T06:21:55;42.38;;;25.83;;
84923;SDS011;75286;52.218;5.180;2024-01-11T06:24:20;43.17;;;26.38;;
84923;SDS011;75286;52.218;5.180;2024-01-11T06:26:45;43.90;;;26.38;;
84923;SDS011;75286;52.218;5.180;2024-01-11T06:29:11;41.70;;;26.48;;
84923;SDS011;75286;52.218;5.180;2024-01-11T06:31:36;42.78;;;25.75;;
84923;SDS011;75286;52.218;5.180;2024-01-11T06:34:01;41.58;;;26.80;;
84923;SDS011;75286;52.218;5.180;2024-01-11T06:36:27;44.88;;;26.67;;
84923;SDS011;75286;52.218;5.180;2024-01-11T06:38:53;42.95;;;25.73;;
84923;SDS011;75286;52.218;5.180;2024-01-11T06:41:18;39.13;;;24.40;;
84923;SDS011;75286;52.218;5.180;2024-01-11T06:43:43;45.00;;;27.13;;
84923;SDS011;75286;52.218;5.180;2024-01-11T06:46:09;44.83;;;27.00;;
84923;SDS011;75286;52.218;5.180;2024-01-11T06:48:35;42.88;;;26.08;;
84923;SDS011;75286;52.218;5.180;2024-01-11T06:51:01;47.78;;;26.98;;
84923;SDS011;75286;52.218;5.180;2024-01-11T06:53:26;40.88;;;26.13;;
84923;SDS011;75286;52.218;5.180;2024-01-11T06:55:51;40.00;;;24.80;;
84923;SDS011;75286;52.218;5.180;2024-01-11T06:58:22;43.10;;;25.25;;
84923;SDS011;75286;52.218;5.180;2024-01-11T07:00:51;44.75;;;28.25;;
84923;SDS011;75286;52.218;5.180;2024-01-11T07:03:17;42.22;;;26.42;;
84923;SDS011;75286;52.218;5.180;2024-01-11T07:05:42;44.70;;;27.00;;
84923;SDS011;75286;52.218;5.180;2024-01-11T07:08:08;45.22;;;26.35;;
84923;SDS011;75286;52.218;5.180;2024-01-11T07:10:33;41.60;;;26.02;;
84923;SDS011;75286;52.218;5.180;2024-01-11T07:12:59;42.65;;;25.60;;
84923;SDS011;75286;52.218;5.180;2024-01-11T07:15:24;45.63;;;27.38;;
84923;SDS011;75286;52.218;5.180;2024-01-11T07:17:49;43.15;;;27.10;;
84923;SDS011;75286;52.218;5.180;2024-01-11T07:20:15;47.28;;;27.58;;
84923;SDS011;75286;52.218;5.180;2024-01-11T07:22:41;43.60;;;26.95;;
84923;SDS011;75286;52.218;5.180;2024-01-11T07:25:07;41.88;;;25.80;;
84923;SDS011;75286;52.218;5.180;2024-01-11T07:27:33;40.05;;;26.08;;
84923;SDS011;75286;52.218;5.180;2024-01-11T07:29:58;40.75;;;25.20;;
84923;SDS011;75286;52.218;5.180;2024-01-11T07:32:23;43.05;;;26.20;;
84923;SDS011;75286;52.218;5.180;2024-01-11T07:34:49;43.17;;;27.15;;
84923;SDS011;75286;52.218;5.180;2024-01-11T07:37:14;41.63;;;26.45;;
84923;SDS011;75286;52.218;5.180;2024-01-11T07:39:39;40.85;;;25.77;;
84923;SDS011;75286;52.218;5.180;2024-01-11T07:42:07;40.85;;;26.20;;
84923;SDS011;75286;52.218;5.180;2024-01-11T07:44:33;44.13;;;25.42;;
84923;SDS011;75286;52.218;5.180;2024-01-11T07:46:58;44.42;;;27.38;;
84923;SDS011;75286;52.218;5.180;2024-01-11T07:49:23;42.63;;;27.35;;
84923;SDS011;75286;52.218;5.180;2024-01-11T07:51:49;46.90;;;28.55;;
84923;SDS011;75286;52.218;5.180;2024-01-11T07:54:14;41.72;;;26.08;;
84923;SDS011;75286;52.218;5.180;2024-01-11T07:56:39;43.67;;;26.88;;
84923;SDS011;75286;52.218;5.180;2024-01-11T07:59:05;45.55;;;26.90;;
84923;SDS011;75286;52.218;5.180;2024-01-11T08:01:31;45.63;;;28.35;;
84923;SDS011;75286;52.218;5.180;2024-01-11T08:03:56;44.22;;;28.90;;
84923;SDS011;75286;52.218;5.180;2024-01-11T08:06:21;48.67;;;28.98;;
84923;SDS011;75286;52.218;5.180;2024-01-11T08:08:47;47.22;;;29.50;;
84923;SDS011;75286;52.218;5.180;2024-01-11T08:11:17;44.05;;;27.63;;
84923;SDS011;75286;52.218;5.180;2024-01-11T08:13:43;45.13;;;27.63;;
84923;SDS011;75286;52.218;5.180;2024-01-11T08:16:08;44.20;;;27.95;;
84923;SDS011;75286;52.218;5.180;2024-01-11T08:18:34;42.10;;;27.13;;
84923;SDS011;75286;52.218;5.180;2024-01-11T08:21:00;43.13;;;26.02;;
84923;SDS011;75286;52.218;5.180;2024-01-11T08:23:26;43.72;;;27.50;;
84923;SDS011;75286;52.218;5.180;2024-01-11T08:25:51;42.53;;;26.40;;
84923;SDS011;75286;52.218;5.180;2024-01-11T08:28:17;39.58;;;26.00;;
84923;SDS011;75286;52.218;5.180;2024-01-11T08:30:43;38.60;;;26.17;;
84923;SDS011;75286;52.218;5.180;2024-01-11T08:33:09;47.95;;;29.48;;
84923;SDS011;75286;52.218;5.180;2024-01-11T08:35:34;44.15;;;29.58;;
84923;SDS011;75286;52.218;5.180;2024-01-11T08:38:00;45.17;;;29.65;;
84923;SDS011;75286;52.218;5.180;2024-01-11T08:40:26;49.03;;;31.27;;
84923;SDS011;75286;52.218;5.180;2024-01-11T08:42:51;46.42;;;29.33;;
84923;SDS011;75286;52.218;5.180;2024-01-11T08:45:17;44.90;;;28.52;;
84923;SDS011;75286;52.218;5.180;2024-01-11T08:47:47;44.72;;;27.35;;
84923;SDS011;75286;52.218;5.180;2024-01-11T08:50:15;45.90;;;28.63;;
84923;SDS011;75286;52.218;5.180;2024-01-11T08:52:41;43.92;;;26.98;;
84923;SDS011;75286;52.218;5.180;2024-01-11T08:55:08;47.20;;;29.73;;
84923;SDS011;75286;52.218;5.180;2024-01-11T08:57:33;47.25;;;34.67;;
84923;SDS011;75286;52.218;5.180;2024-01-11T09:00:01;44.78;;;32.10;;
84923;SDS011;75286;52.218;5.180;2024-01-11T09:02:27;44.05;;;28.30;;
84923;SDS011;75286;52.218;5.180;2024-01-11T09:04:53;40.88;;;28.08;;
84923;SDS011;75286;52.218;5.180;2024-01-11T09:07:18;41.63;;;27.35;;
84923;SDS011;75286;52.218;5.180;2024-01-11T09:09:43;38.50;;;24.60;;
84923;SDS011;75286;52.218;5.180;2024-01-11T09:12:09;37.05;;;25.15;;
84923;SDS011;75286;52.218;5.180;2024-01-11T09:14:35;33.83;;;22.73;;
84923;SDS011;75286;52.218;5.180;2024-01-11T09:17:00;35.97;;;23.25;;
84923;SDS011;75286;52.218;5.180;2024-01-11T09:19:26;39.20;;;22.83;;
84923;SDS011;75286;52.218;5.180;2024-01-11T09:21:51;36.08;;;22.80;;
84923;SDS011;75286;52.218;5.180;2024-01-11T09:24:16;35.85;;;22.75;;
84923;SDS011;75286;52.218;5.180;2024-01-11T09:26:42;36.00;;;22.30;;
84923;SDS011;75286;52.218;5.180;2024-01-11T09:29:07;37.58;;;21.48;;
84923;SDS011;75286;52.218;5.180;2024-01-11T09:31:32;41.20;;;22.27;;
84923;SDS011;75286;52.218;5.180;2024-01-11T09:33:58;33.90;;;22.02;;
84923;SDS011;75286;52.218;5.180;2024-01-11T09:36:23;37.40;;;22.45;;
84923;SDS011;75286;52.218;5.180;2024-01-11T09:38:49;36.22;;;21.52;;
84923;SDS011;75286;52.218;5.180;2024-01-11T09:41:14;34.38;;;21.48;;
84923;SDS011;75286;52.218;5.180;2024-01-11T09:43:43;36.15;;;21.25;;
84923;SDS011;75286;52.218;5.180;2024-01-11T09:46:10;31.35;;;20.17;;
84923;SDS011;75286;52.218;5.180;2024-01-11T09:48:37;38.25;;;21.33;;
84923;SDS011;75286;52.218;5.180;2024-01-11T09:51:13;34.17;;;18.50;;
84923;SDS011;75286;52.218;5.180;2024-01-11T09:53:38;29.85;;;19.15;;
84923;SDS011;75286;52.218;5.180;2024-01-11T09:56:08;32.28;;;21.25;;
84923;SDS011;75286;52.218;5.180;2024-01-11T09:58:35;37.55;;;20.52;;
84923;SDS011;75286;52.218;5.180;2024-01-11T10:01:05;32.20;;;19.25;;
84923;SDS011;75286;52.218;5.180;2024-01-11T10:03:34;31.52;;;19.35;;
84923;SDS011;75286;52.218;5.180;2024-01-11T10:05:59;37.55;;;19.27;;
84923;SDS011;75286;52.218;5.180;2024-01-11T10:08:27;28.50;;;19.35;;
84923;SDS011;75286;52.218;5.180;2024-01-11T10:10:54;32.05;;;19.60;;
84923;SDS011;75286;52.218;5.180;2024-01-11T10:13:23;29.77;;;18.88;;
84923;SDS011;75286;52.218;5.180;2024-01-11T10:15:52;31.77;;;19.08;;
84923;SDS011;75286;52.218;5.180;2024-01-11T10:18:17;33.85;;;19.52;;
84923;SDS011;75286;52.218;5.180;2024-01-11T10:20:47;32.85;;;19.27;;
84923;SDS011;75286;52.218;5.180;2024-01-11T10:23:13;29.75;;;17.92;;
84923;SDS011;75286;52.218;5.180;2024-01-11T10:25:39;35.25;;;20.90;;
84923;SDS011;75286;52.218;5.180;2024-01-11T10:28:07;36.22;;;20.08;;
84923;SDS011;75286;52.218;5.180;2024-01-11T10:30:33;30.73;;;18.45;;
84923;SDS011;75286;52.218;5.180;2024-01-11T10:32:58;31.88;;;19.65;;
84923;SDS011;75286;52.218;5.180;2024-01-11T10:35:25;32.70;;;20.52;;
84923;SDS011;75286;52.218;5.180;2024-01-11T10:37:50;32.85;;;21.25;;
84923;SDS011;75286;52.218;5.180;2024-01-11T10:40:18;33.25;;;22.48;;
84923;SDS011;75286;52.218;5.180;2024-01-11T10:42:52;34.75;;;23.17;;
84923;SDS011;75286;52.218;5.180;2024-01-11T10:45:18;37.85;;;24.52;;
84923;SDS011;75286;52.218;5.180;2024-01-11T10:50:21;34.58;;;20.67;;
84923;SDS011;75286;52.218;5.180;2024-01-11T10:52:56;32.33;;;19.33;;
84923;SDS011;75286;52.218;5.180;2024-01-11T10:55:30;32.70;;;20.48;;
84923;SDS011;75286;52.218;5.180;2024-01-11T10:57:58;34.50;;;21.15;;
84923;SDS011;75286;52.218;5.180;2024-01-11T11:00:25;34.15;;;21.23;;
84923;SDS011;75286;52.218;5.180;2024-01-11T11:02:52;35.03;;;22.27;;
84923;SDS011;75286;52.218;5.180;2024-01-11T11:05:19;32.63;;;21.40;;
84923;SDS011;75286;52.218;5.180;2024-01-11T11:07:47;37.72;;;21.33;;
84923;SDS011;75286;52.218;5.180;2024-01-11T11:10:15;32.28;;;19.15;;
84923;SDS011;75286;52.218;5.180;2024-01-11T11:12:42;31.08;;;19.15;;
84923;SDS011;75286;52.218;5.180;2024-01-11T11:15:10;33.53;;;20.85;;
84923;SDS011;75286;52.218;5.180;2024-01-11T11:17:37;32.58;;;19.17;;
84923;SDS011;75286;52.218;5.180;2024-01-11T11:20:04;32.67;;;19.95;;
84923;SDS011;75286;52.218;5.180;2024-01-11T11:22:36;34.45;;;21.30;;
84923;SDS011;75286;52.218;5.180;2024-01-11T11:25:44;33.15;;;19.35;;
84923;SDS011;75286;52.218;5.180;2024-01-11T11:27:50;34.15;;;20.40;;
84923;SDS011;75286;52.218;5.180;2024-01-11T11:30:18;29.65;;;17.65;;
84923;SDS011;75286;52.218;5.180;2024-01-11T11:32:45;30.25;;;18.75;;
84923;SDS011;75286;52.218;5.180;2024-01-11T11:35:11;35.13;;;19.80;;
84923;SDS011;75286;52.218;5.180;2024-01-11T11:37:37;37.22;;;23.00;;
84923;SDS011;75286;52.218;5.180;2024-01-11T11:40:10;41.17;;;24.27;;
84923;SDS011;75286;52.218;5.180;2024-01-11T11:42:36;33.53;;;21.02;;
84923;SDS011;75286;52.218;5.180;2024-01-11T11:45:02;29.70;;;19.13;;
84923;SDS011;75286;52.218;5.180;2024-01-11T11:47:34;26.65;;;16.77;;
84923;SDS011;75286;52.218;5.180;2024-01-11T11:50:10;30.15;;;18.35;;
84923;SDS011;75286;52.218;5.180;2024-01-11T11:52:40;29.60;;;16.83;;
84923;SDS011;75286;52.218;5.180;2024-01-11T11:55:08;30.30;;;17.15;;
84923;SDS011;75286;52.218;5.180;2024-01-11T11:57:34;27.20;;;15.57;;
84923;SDS011;75286;52.218;5.180;2024-01-11T12:00:00;25.27;;;16.90;;
84923;SDS011;75286;52.218;5.180;2024-01-11T12:02:36;24.10;;;15.20;;
84923;SDS011;75286;52.218;5.180;2024-01-11T12:05:02;30.45;;;16.33;;
84923;SDS011;75286;52.218;5.180;2024-01-11T12:07:29;28.13;;;16.63;;
84923;SDS011;75286;52.218;5.180;2024-01-11T12:09:54;26.58;;;17.60;;
84923;SDS011;75286;52.218;5.180;2024-01-11T12:12:20;26.75;;;16.67;;
84923;SDS011;75286;52.218;5.180;2024-01-11T12:14:49;23.25;;;16.00;;
84923;SDS011;75286;52.218;5.180;2024-01-11T12:17:14;25.88;;;16.30;;
84923;SDS011;75286;52.218;5.180;2024-01-11T12:19:40;26.80;;;16.35;;
84923;SDS011;75286;52.218;5.180;2024-01-11T12:22:06;26.83;;;17.30;;
84923;SDS011;75286;52.218;5.180;2024-01-11T12:24:32;28.80;;;17.42;;
84923;SDS011;75286;52.218;5.180;2024-01-11T12:26:59;27.42;;;15.55;;
84923;SDS011;75286;52.218;5.180;2024-01-11T12:29:24;26.33;;;16.25;;
84923;SDS011;75286;52.218;5.180;2024-01-11T12:31:50;27.65;;;16.23;;
84923;SDS011;75286;52.218;5.180;2024-01-11T12:34:16;27.30;;;16.70;;
84923;SDS011;75286;52.218;5.180;2024-01-11T12:36:42;27.25;;;17.30;;
84923;SDS011;75286;52.218;5.180;2024-01-11T12:39:08;25.20;;;16.73;;
84923;SDS011;75286;52.218;5.180;2024-01-11T12:41:35;26.35;;;16.23;;
84923;SDS011;75286;52.218;5.180;2024-01-11T12:44:01;28.25;;;17.45;;
84923;SDS011;75286;52.218;5.180;2024-01-11T12:46:27;25.48;;;15.57;;
84923;SDS011;75286;52.218;5.180;2024-01-11T12:48:53;32.20;;;16.70;;
84923;SDS011;75286;52.218;5.180;2024-01-11T12:51:18;27.23;;;15.77;;
84923;SDS011;75286;52.218;5.180;2024-01-11T12:53:45;24.75;;;15.23;;
84923;SDS011;75286;52.218;5.180;2024-01-11T12:56:11;22.80;;;14.40;;
84923;SDS011;75286;52.218;5.180;2024-01-11T12:58:40;28.33;;;15.90;;
84923;SDS011;75286;52.218;5.180;2024-01-11T13:01:06;26.38;;;15.90;;
84923;SDS011;75286;52.218;5.180;2024-01-11T13:03:33;25.25;;;15.55;;
84923;SDS011;75286;52.218;5.180;2024-01-11T13:05:59;25.27;;;15.20;;
84923;SDS011;75286;52.218;5.180;2024-01-11T13:08:25;31.42;;;15.55;;
84923;SDS011;75286;52.218;5.180;2024-01-11T13:10:52;27.05;;;16.88;;
84923;SDS011;75286;52.218;5.180;2024-01-11T13:13:17;27.95;;;17.75;;
84923;SDS011;75286;52.218;5.180;2024-01-11T13:15:43;26.65;;;16.20;;
84923;SDS011;75286;52.218;5.180;2024-01-11T13:18:09;26.17;;;16.83;;
84923;SDS011;75286;52.218;5.180;2024-01-11T13:20:35;27.65;;;16.45;;
84923;SDS011;75286;52.218;5.180;2024-01-11T13:23:19;27.83;;;16.67;;
84923;SDS011;75286;52.218;5.180;2024-01-11T13:25:46;26.60;;;16.42;;
84923;SDS011;75286;52.218;5.180;2024-01-11T13:28:14;35.67;;;18.23;;
84923;SDS011;75286;52.218;5.180;2024-01-11T13:30:40;29.40;;;16.25;;
84923;SDS011;75286;52.218;5.180;2024-01-11T13:33:07;25.80;;;14.57;;
84923;SDS011;75286;52.218;5.180;2024-01-11T13:35:37;27.02;;;16.13;;
84923;SDS011;75286;52.218;5.180;2024-01-11T13:38:04;26.58;;;15.82;;
84923;SDS011;75286;52.218;5.180;2024-01-11T13:40:30;27.83;;;17.33;;
84923;SDS011;75286;52.218;5.180;2024-01-11T13:42:56;23.95;;;14.88;;
84923;SDS011;75286;52.218;5.180;2024-01-11T13:45:22;26.73;;;16.10;;
84923;SDS011;75286;52.218;5.180;2024-01-11T13:47:48;24.10;;;16.23;;
84923;SDS011;75286;52.218;5.180;2024-01-11T13:50:13;26.00;;;16.33;;
84923;SDS011;75286;52.218;5.180;2024-01-11T13:52:39;23.38;;;14.18;;
84923;SDS011;75286;52.218;5.180;2024-01-11T13:55:06;22.20;;;13.70;;
84923;SDS011;75286;52.218;5.180;2024-01-11T13:57:32;24.25;;;14.82;;
84923;SDS011;75286;52.218;5.180;2024-01-11T13:59:59;26.83;;;16.08;;
84923;SDS011;75286;52.218;5.180;2024-01-11T14:02:24;26.67;;;17.70;;
84923;SDS011;75286;52.218;5.180;2024-01-11T14:04:50;26.30;;;15.77;;
84923;SDS011;75286;52.218;5.180;2024-01-11T14:07:15;27.33;;;15.95;;
84923;SDS011;75286;52.218;5.180;2024-01-11T14:09:41;24.80;;;15.00;;
84923;SDS011;75286;52.218;5.180;2024-01-11T14:12:06;22.88;;;15.63;;
84923;SDS011;75286;52.218;5.180;2024-01-11T14:14:32;24.70;;;16.30;;
84923;SDS011;75286;52.218;5.180;2024-01-11T14:16:57;23.45;;;16.08;;